Time;durP1;ratioP1;P1;durP2;ratioP2;P2;SDS_P1;SDS_P2;PMS_P1;PMS_P2;Temp;Humidity;BMP_temperature;BMP_pressure;BME280_temperature;BME280_humidity;BME280_pressure;Samples;Min_cycle;Max_cycle;Signal;HPM_P1;HPM_P2
2021/11/13 00:01:28;;;;;;;29.90;25.83;;;2.00;99.90;;;;;;5034612;28;20185;-64
2021/11/13 00:03:54;;;;;;;29.23;24.80;;;2.00;99.90;;;;;;5030171;28;20229;-64
2021/11/13 00:06:19;;;;;;;30.70;24.40;;;2.00;99.90;;;;;;5046145;28;20547;-64
2021/11/13 00:08:45;;;;;;;30.43;23.77;;;2.00;99.90;;;;;;5032630;28;20212;-63
2021/11/13 00:11:11;;;;;;;26.30;22.97;;;1.90;99.90;;;;;;5046923;28;20205;-64
2021/11/13 00:13:38;;;;;;;30.20;23.57;;;1.90;99.90;;;;;;5042352;28;20170;-63
2021/11/13 00:16:05;;;;;;;29.37;23.80;;;1.90;99.90;;;;;;5035844;28;20428;-63
2021/11/13 00:18:35;;;;;;;30.90;23.70;;;1.90;99.90;;;;;;5028256;28;20447;-63
2021/11/13 00:21:02;;;;;;;26.10;22.43;;;1.90;99.90;;;;;;5035886;28;20465;-63
2021/11/13 00:23:27;;;;;;;28.63;23.80;;;1.90;99.90;;;;;;5030309;28;20460;-64
2021/11/13 00:25:53;;;;;;;27.87;24.63;;;1.90;99.90;;;;;;5030300;28;20455;-63
2021/11/13 00:28:18;;;;;;;26.97;23.17;;;2.00;99.90;;;;;;5033193;28;20198;-64
2021/11/13 00:30:44;;;;;;;25.17;20.93;;;2.00;99.90;;;;;;5047201;28;20206;-63
2021/11/13 00:33:10;;;;;;;24.23;21.63;;;2.10;99.90;;;;;;5044657;28;20182;-64
2021/11/13 00:35:35;;;;;;;27.93;22.17;;;2.10;99.90;;;;;;5042743;28;20584;-64
2021/11/13 00:38:01;;;;;;;30.90;23.43;;;2.10;99.90;;;;;;5035015;28;20281;-64
2021/11/13 00:40:26;;;;;;;27.33;22.47;;;2.10;99.90;;;;;;5030874;28;20361;-65
2021/11/13 00:42:52;;;;;;;30.20;23.63;;;2.10;99.90;;;;;;5042136;28;20703;-64
2021/11/13 00:45:18;;;;;;;38.97;24.30;;;2.00;99.90;;;;;;5042878;28;20632;-64
2021/11/13 00:47:44;;;;;;;34.80;26.00;;;2.00;99.90;;;;;;5029291;28;20711;-65
2021/11/13 00:50:12;;;;;;;37.27;24.03;;;2.00;99.90;;;;;;5028182;28;20229;-65
2021/11/13 00:52:38;;;;;;;35.87;22.80;;;2.00;99.90;;;;;;5029853;28;20182;-64
2021/11/13 00:55:04;;;;;;;33.53;23.73;;;1.90;99.90;;;;;;5030186;28;20429;-65
2021/11/13 00:57:30;;;;;;;38.27;23.63;;;2.00;99.90;;;;;;5036659;28;20448;-64
2021/11/13 00:59:55;;;;;;;26.87;21.50;;;1.90;99.90;;;;;;5038549;28;20506;-63
2021/11/13 01:02:21;;;;;;;29.37;23.03;;;1.90;99.90;;;;;;5033702;28;20186;-64
2021/11/13 01:04:47;;;;;;;26.33;22.50;;;2.00;99.90;;;;;;5045872;28;20192;-64
2021/11/13 01:07:12;;;;;;;30.77;23.97;;;2.00;99.90;;;;;;5037858;28;20178;-64
2021/11/13 01:09:38;;;;;;;27.40;22.70;;;2.00;99.90;;;;;;5043573;28;20658;-63
2021/11/13 01:12:04;;;;;;;25.23;21.33;;;2.10;99.90;;;;;;5046756;28;20186;-63
2021/11/13 01:14:30;;;;;;;23.13;19.80;;;2.10;99.90;;;;;;5045522;28;20185;-64
2021/11/13 01:16:56;;;;;;;26.50;21.30;;;2.10;99.90;;;;;;5037985;28;20938;-65
2021/11/13 01:19:21;;;;;;;29.13;21.40;;;2.20;99.90;;;;;;5040672;28;20201;-64
2021/11/13 01:21:47;;;;;;;28.03;23.23;;;2.30;99.90;;;;;;5051956;28;20174;-63
2021/11/13 01:24:13;;;;;;;26.20;22.80;;;2.40;99.90;;;;;;5030935;28;20177;-65
2021/11/13 01:26:39;;;;;;;61.63;26.40;;;2.40;99.90;;;;;;5034906;28;20437;-64
2021/11/13 01:29:05;;;;;;;32.97;23.87;;;2.50;99.90;;;;;;5046943;28;20820;-64
2021/11/13 01:31:30;;;;;;;31.53;23.83;;;2.60;99.90;;;;;;5030565;28;20181;-63
2021/11/13 01:33:57;;;;;;;32.47;25.30;;;2.50;99.90;;;;;;5035783;28;20206;-64
2021/11/13 01:36:24;;;;;;;30.67;24.90;;;2.40;99.90;;;;;;5032366;28;20249;-63
2021/11/13 01:38:50;;;;;;;30.40;24.87;;;2.50;99.90;;;;;;5051619;28;20448;-65
2021/11/13 01:41:16;;;;;;;38.40;25.00;;;2.50;99.90;;;;;;5036895;28;20554;-64
2021/11/13 01:43:42;;;;;;;30.90;25.20;;;2.60;99.90;;;;;;5044413;28;20508;-63
2021/11/13 01:46:09;;;;;;;39.13;27.50;;;2.60;99.90;;;;;;5040038;28;20181;-63
2021/11/13 01:48:35;;;;;;;26.13;21.97;;;2.60;99.90;;;;;;5039336;28;20210;-63
2021/11/13 01:51:02;;;;;;;28.07;21.73;;;2.50;99.90;;;;;;5037944;28;20626;-64
2021/11/13 01:53:28;;;;;;;28.53;21.37;;;2.50;99.90;;;;;;5049451;28;20502;-64
2021/11/13 01:55:56;;;;;;;25.00;21.00;;;2.50;99.90;;;;;;5042163;28;20527;-64
2021/11/13 01:58:22;;;;;;;26.37;20.57;;;2.50;99.90;;;;;;5043607;28;20977;-64
2021/11/13 02:00:52;;;;;;;22.83;19.63;;;2.40;99.90;;;;;;5038692;28;20441;-64
2021/11/13 02:03:20;;;;;;;27.87;21.53;;;2.40;99.90;;;;;;5048786;28;20501;-65
2021/11/13 02:05:51;;;;;;;26.20;20.90;;;2.40;99.90;;;;;;5049160;28;20475;-63
2021/11/13 02:08:17;;;;;;;22.83;20.00;;;2.50;99.90;;;;;;5039629;28;20455;-65
2021/11/13 02:10:45;;;;;;;34.10;19.40;;;2.50;99.90;;;;;;5041030;28;20533;-64
2021/11/13 02:13:10;;;;;;;31.57;21.20;;;2.60;99.90;;;;;;5037450;28;20432;-64
2021/11/13 02:15:36;;;;;;;33.93;21.80;;;2.70;99.90;;;;;;5024270;28;20989;-63
2021/11/13 02:18:02;;;;;;;30.00;19.73;;;2.60;99.90;;;;;;5039515;28;20205;-63
2021/11/13 02:20:27;;;;;;;31.00;20.83;;;2.50;99.90;;;;;;5043967;28;20664;-63
2021/11/13 02:22:55;;;;;;;25.60;20.83;;;2.50;99.90;;;;;;5046795;28;20177;-63
2021/11/13 02:25:24;;;;;;;37.97;21.90;;;2.40;99.90;;;;;;5035889;28;20182;-63
2021/11/13 02:27:50;;;;;;;27.00;20.87;;;2.40;99.90;;;;;;5049218;28;20862;-63
2021/11/13 02:30:16;;;;;;;37.17;20.70;;;2.40;99.90;;;;;;5040053;28;20551;-64
2021/11/13 02:32:41;;;;;;;34.00;20.60;;;2.40;99.90;;;;;;5043240;28;20520;-64
2021/11/13 02:35:09;;;;;;;54.77;22.63;;;2.40;99.90;;;;;;5034639;28;20432;-63
2021/11/13 02:37:35;;;;;;;57.90;21.50;;;2.50;99.90;;;;;;5034261;28;20226;-64
2021/11/13 02:40:03;;;;;;;61.90;23.63;;;2.50;99.90;;;;;;5042770;28;20491;-64
2021/11/13 02:42:29;;;;;;;57.23;22.27;;;2.50;99.90;;;;;;5046581;28;20926;-63
2021/11/13 02:44:55;;;;;;;33.07;19.47;;;2.40;99.90;;;;;;5033006;28;20436;-63
2021/11/13 02:47:21;;;;;;;57.00;22.87;;;2.40;99.90;;;;;;5044804;28;20451;-63
2021/11/13 02:49:47;;;;;;;47.33;20.47;;;2.30;99.90;;;;;;5042000;28;20478;-63
2021/11/13 02:52:14;;;;;;;52.33;21.33;;;2.40;99.90;;;;;;5051465;28;20427;-63
2021/11/13 02:54:45;;;;;;;36.33;20.73;;;2.40;99.90;;;;;;5033024;28;20520;-63
2021/11/13 02:57:10;;;;;;;33.57;19.30;;;2.40;99.90;;;;;;5033154;28;20958;-63
2021/11/13 02:59:45;;;;;;;33.40;19.77;;;2.30;99.90;;;;;;5050216;28;20443;-63
2021/11/13 03:02:10;;;;;;;31.87;18.60;;;2.40;99.90;;;;;;5051318;28;20185;-63
2021/11/13 03:04:37;;;;;;;78.57;22.30;;;2.40;99.90;;;;;;5035468;28;20812;-63
2021/11/13 03:07:03;;;;;;;42.30;19.90;;;2.50;99.90;;;;;;5030792;28;20182;-64
2021/11/13 03:09:29;;;;;;;33.50;19.73;;;2.50;99.90;;;;;;5049821;28;20496;-63
2021/11/13 03:11:54;;;;;;;135.67;25.63;;;2.50;99.90;;;;;;5044487;28;20469;-63
2021/11/13 03:14:20;;;;;;;34.10;20.43;;;2.40;99.90;;;;;;5039757;28;20182;-64
2021/11/13 03:16:46;;;;;;;77.40;22.07;;;2.30;99.90;;;;;;5045243;28;20252;-63
2021/11/13 03:19:12;;;;;;;54.33;21.10;;;2.20;99.90;;;;;;5042776;28;20196;-63
2021/11/13 03:21:39;;;;;;;51.63;20.77;;;2.00;99.90;;;;;;5036683;28;20178;-62
2021/11/13 03:24:05;;;;;;;56.20;19.90;;;1.90;99.90;;;;;;5036416;28;20439;-64
2021/11/13 03:26:32;;;;;;;78.03;20.53;;;1.80;99.90;;;;;;5039523;28;20437;-63
2021/11/13 03:29:15;;;;;;;37.80;19.17;;;1.70;99.90;;;;;;5047817;28;20261;-63
2021/11/13 03:31:42;;;;;;;38.97;17.70;;;1.60;99.90;;;;;;5040574;28;20452;-63
2021/11/13 03:34:07;;;;;;;48.60;20.80;;;1.50;99.90;;;;;;5045350;28;20493;-63
2021/11/13 03:36:33;;;;;;;44.57;20.23;;;1.40;99.90;;;;;;5050382;28;20428;-64
2021/11/13 03:38:59;;;;;;;59.73;23.20;;;1.40;99.90;;;;;;5034986;28;20232;-64
2021/11/13 03:41:24;;;;;;;42.13;21.60;;;1.40;99.90;;;;;;5044902;28;20181;-64
2021/11/13 03:43:52;;;;;;;41.00;21.53;;;1.40;99.90;;;;;;5040116;28;20183;-63
2021/11/13 03:46:18;;;;;;;55.20;21.70;;;1.40;99.90;;;;;;5040937;28;20189;-63
2021/11/13 03:48:45;;;;;;;45.50;23.13;;;1.40;99.90;;;;;;5039022;28;20463;-63
2021/11/13 03:51:11;;;;;;;44.57;21.27;;;1.40;99.90;;;;;;5042118;28;20830;-65
2021/11/13 03:53:37;;;;;;;37.33;22.20;;;1.40;99.90;;;;;;5033620;28;20417;-63
2021/11/13 03:56:03;;;;;;;43.27;23.80;;;1.40;99.90;;;;;;5034839;28;20174;-64
2021/11/13 03:58:28;;;;;;;37.27;23.40;;;1.40;99.90;;;;;;5040313;28;20247;-63
2021/11/13 04:00:54;;;;;;;56.37;26.40;;;1.40;99.90;;;;;;5042679;28;20440;-64
2021/11/13 04:03:20;;;;;;;30.60;21.63;;;1.50;99.90;;;;;;5045861;28;20563;-63
2021/11/13 04:05:46;;;;;;;36.10;25.13;;;1.50;99.90;;;;;;5040483;28;20199;-63
2021/11/13 04:08:11;;;;;;;38.43;23.60;;;1.60;99.90;;;;;;5037638;28;20202;-63
2021/11/13 04:10:37;;;;;;;43.87;24.50;;;1.70;99.90;;;;;;5047776;28;20823;-63
2021/11/13 04:13:02;;;;;;;31.23;23.87;;;1.70;99.90;;;;;;5034538;28;20197;-63
2021/11/13 04:15:28;;;;;;;33.73;24.13;;;1.70;99.90;;;;;;5037763;28;20170;-63
2021/11/13 04:17:54;;;;;;;32.30;23.97;;;1.80;99.90;;;;;;5033970;28;20190;-63
2021/11/13 04:20:20;;;;;;;33.77;24.23;;;1.90;99.90;;;;;;5042855;28;20428;-64
2021/11/13 04:22:49;;;;;;;34.17;23.00;;;2.00;99.90;;;;;;5038269;28;20672;-63
2021/11/13 04:25:15;;;;;;;28.53;22.60;;;2.00;99.90;;;;;;5039082;28;20177;-63
2021/11/13 04:27:41;;;;;;;30.00;23.63;;;2.00;99.90;;;;;;5042242;28;20452;-63
2021/11/13 04:30:09;;;;;;;23.80;20.33;;;2.10;99.90;;;;;;5030631;28;20464;-63
2021/11/13 04:32:37;;;;;;;24.83;21.57;;;2.00;99.90;;;;;;5039871;28;20170;-64
2021/11/13 04:35:16;;;;;;;23.73;19.97;;;2.00;99.90;;;;;;5047884;28;20507;-63
2021/11/13 04:37:48;;;;;;;22.83;19.83;;;2.10;99.90;;;;;;5031858;28;20854;-63
2021/11/13 04:40:15;;;;;;;23.20;20.67;;;2.10;99.90;;;;;;5049269;28;20511;-64
2021/11/13 04:42:41;;;;;;;20.93;18.27;;;2.20;99.90;;;;;;5042298;28;20437;-65
2021/11/13 04:45:07;;;;;;;22.43;18.83;;;2.20;99.90;;;;;;5051333;28;20937;-65
2021/11/13 04:47:33;;;;;;;25.10;21.50;;;2.20;99.90;;;;;;5036582;28;20470;-64
2021/11/13 04:50:00;;;;;;;24.03;19.50;;;2.30;99.90;;;;;;5046552;28;20744;-65
2021/11/13 04:52:26;;;;;;;21.20;19.00;;;2.20;99.90;;;;;;5041725;28;20420;-65
2021/11/13 04:54:52;;;;;;;21.90;19.60;;;2.20;99.90;;;;;;5051289;28;21010;-65
2021/11/13 04:57:18;;;;;;;22.27;19.40;;;2.30;99.90;;;;;;5034951;28;20178;-65
2021/11/13 04:59:43;;;;;;;22.13;19.43;;;2.40;99.90;;;;;;5033891;28;20180;-65
2021/11/13 05:02:10;;;;;;;21.67;17.97;;;2.50;99.90;;;;;;5045749;28;20185;-65
2021/11/13 05:04:35;;;;;;;22.10;19.07;;;2.60;99.90;;;;;;5046014;28;20205;-64
2021/11/13 05:07:01;;;;;;;21.83;19.53;;;2.70;99.90;;;;;;5039502;28;20463;-65
2021/11/13 05:09:27;;;;;;;21.40;19.10;;;2.80;99.90;;;;;;5032008;28;20266;-64
2021/11/13 05:11:52;;;;;;;20.10;18.00;;;2.90;99.90;;;;;;5044555;28;20182;-64
2021/11/13 05:14:18;;;;;;;22.77;18.37;;;2.90;99.90;;;;;;5042477;28;20539;-65
2021/11/13 05:16:43;;;;;;;22.97;20.43;;;2.80;99.90;;;;;;5050921;28;20650;-64
2021/11/13 05:19:09;;;;;;;20.23;17.20;;;2.70;99.90;;;;;;5038057;28;20201;-63
2021/11/13 05:21:36;;;;;;;20.87;18.77;;;2.90;99.90;;;;;;5045656;28;20248;-65
2021/11/13 05:24:02;;;;;;;21.40;18.57;;;2.90;99.90;;;;;;5051890;28;20265;-65
2021/11/13 05:26:27;;;;;;;19.60;17.50;;;3.00;99.90;;;;;;5046022;28;20601;-64
2021/11/13 05:28:53;;;;;;;20.27;18.00;;;3.10;99.90;;;;;;5037409;28;20202;-65
2021/11/13 05:31:19;;;;;;;21.37;19.17;;;3.10;99.90;;;;;;5044665;28;20575;-65
2021/11/13 05:33:44;;;;;;;19.77;17.60;;;3.10;99.90;;;;;;5046196;28;20433;-64
2021/11/13 05:36:10;;;;;;;22.10;18.53;;;3.00;99.90;;;;;;5031901;28;20258;-64
2021/11/13 05:38:36;;;;;;;19.10;17.07;;;2.90;99.90;;;;;;5046790;28;20201;-65
2021/11/13 05:41:01;;;;;;;20.53;18.13;;;2.90;99.90;;;;;;5035018;28;20240;-64
2021/11/13 05:43:27;;;;;;;20.90;18.70;;;2.80;99.90;;;;;;5035642;28;20194;-64
2021/11/13 05:45:52;;;;;;;20.43;18.40;;;2.70;99.90;;;;;;5042079;28;20257;-65
2021/11/13 05:48:18;;;;;;;20.73;18.10;;;2.60;99.90;;;;;;5048208;28;20282;-64
2021/11/13 05:50:45;;;;;;;24.77;19.40;;;2.60;99.90;;;;;;5039976;28;20190;-64
2021/11/13 05:53:10;;;;;;;22.60;20.23;;;2.60;99.90;;;;;;5041408;28;20171;-64
2021/11/13 05:55:37;;;;;;;23.03;19.73;;;2.60;99.90;;;;;;5045352;28;20440;-64
2021/11/13 05:58:02;;;;;;;21.90;19.50;;;2.70;99.90;;;;;;5044722;28;20209;-64
2021/11/13 06:00:29;;;;;;;20.80;18.00;;;2.70;99.90;;;;;;5042031;28;20445;-66
2021/11/13 06:02:54;;;;;;;24.40;19.90;;;2.70;99.90;;;;;;5041141;28;20460;-65
2021/11/13 06:05:21;;;;;;;24.87;20.30;;;2.70;99.90;;;;;;5032233;28;20464;-64
2021/11/13 06:07:47;;;;;;;22.83;19.93;;;2.70;99.90;;;;;;5045838;28;20201;-65
2021/11/13 06:10:14;;;;;;;22.60;20.20;;;2.70;99.90;;;;;;5040351;28;20464;-66
2021/11/13 06:12:40;;;;;;;24.10;20.50;;;2.70;99.90;;;;;;5041833;28;20464;-64
2021/11/13 06:15:07;;;;;;;21.07;18.87;;;2.70;99.90;;;;;;5035040;28;20425;-63
2021/11/13 06:17:33;;;;;;;21.43;19.23;;;2.70;99.90;;;;;;5034643;28;20441;-64
2021/11/13 06:19:59;;;;;;;20.77;18.70;;;2.80;99.90;;;;;;5037595;28;20440;-64
2021/11/13 06:22:25;;;;;;;22.40;20.03;;;2.80;99.90;;;;;;5036561;28;20969;-65
2021/11/13 06:24:51;;;;;;;21.47;18.20;;;2.90;99.90;;;;;;5046550;28;20273;-64
2021/11/13 06:27:17;;;;;;;22.70;19.10;;;2.90;99.90;;;;;;5046167;28;20463;-64
2021/11/13 06:29:44;;;;;;;21.60;19.40;;;3.00;99.90;;;;;;5036650;28;20206;-65
2021/11/13 06:32:10;;;;;;;21.10;18.77;;;3.10;99.90;;;;;;5037480;28;20232;-65
2021/11/13 06:34:37;;;;;;;22.27;18.87;;;3.20;99.90;;;;;;5038550;28;20938;-65
2021/11/13 06:37:03;;;;;;;21.33;17.30;;;3.30;99.90;;;;;;5049412;28;20433;-65
2021/11/13 06:39:29;;;;;;;21.70;17.93;;;3.40;99.90;;;;;;5041172;28;20444;-65
2021/11/13 06:41:54;;;;;;;22.50;18.60;;;3.50;99.90;;;;;;5040951;28;20443;-65
2021/11/13 06:44:20;;;;;;;25.13;19.43;;;3.50;99.90;;;;;;5036268;28;20178;-65
2021/11/13 06:46:46;;;;;;;19.43;17.33;;;3.60;99.90;;;;;;5034404;28;20209;-65
2021/11/13 06:49:11;;;;;;;20.67;18.43;;;3.70;99.90;;;;;;5037138;28;20317;-64
2021/11/13 06:51:37;;;;;;;21.03;18.90;;;3.70;99.90;;;;;;5044354;28;20213;-63
2021/11/13 06:54:03;;;;;;;20.43;18.33;;;3.70;99.90;;;;;;5035051;28;20765;-65
2021/11/13 06:56:29;;;;;;;23.33;19.67;;;3.60;99.90;;;;;;5041817;28;20421;-65
2021/11/13 06:58:54;;;;;;;23.97;19.53;;;3.60;99.90;;;;;;5038067;28;20448;-65
2021/11/13 07:01:20;;;;;;;21.87;19.73;;;3.60;99.90;;;;;;5033918;28;20650;-63
2021/11/13 07:03:45;;;;;;;23.37;20.00;;;3.40;99.90;;;;;;5034302;28;20174;-66
2021/11/13 07:06:11;;;;;;;25.37;19.93;;;3.40;99.90;;;;;;5033022;28;20209;-65
2021/11/13 07:08:37;;;;;;;22.83;20.30;;;3.40;99.90;;;;;;5043812;28;20198;-65
2021/11/13 07:11:02;;;;;;;24.70;21.13;;;3.40;99.90;;;;;;5044463;28;20663;-65
2021/11/13 07:13:28;;;;;;;23.60;20.43;;;3.50;99.90;;;;;;5035169;28;20723;-65
2021/11/13 07:15:54;;;;;;;24.20;21.70;;;3.50;99.90;;;;;;5043324;28;20169;-65
2021/11/13 07:18:19;;;;;;;22.90;19.50;;;3.50;99.90;;;;;;5032872;28;20274;-64
2021/11/13 07:20:57;;;;;;;26.07;20.33;;;3.50;99.90;;;;;;5027902;28;20178;-65
2021/11/13 07:23:23;;;;;;;22.87;18.77;;;3.50;99.90;;;;;;5024578;28;20184;-65
2021/11/13 07:25:50;;;;;;;24.43;21.80;;;3.60;99.90;;;;;;5034151;28;20528;-65
2021/11/13 07:28:17;;;;;;;21.50;18.73;;;3.70;99.90;;;;;;5033349;28;20202;-65
2021/11/13 07:30:45;;;;;;;24.27;20.73;;;3.70;99.90;;;;;;5042757;28;20457;-65
2021/11/13 07:33:12;;;;;;;23.90;19.93;;;3.80;99.90;;;;;;5036768;28;20428;-64
2021/11/13 07:35:39;;;;;;;21.53;19.27;;;3.90;99.90;;;;;;5040010;28;20428;-66
2021/11/13 07:38:05;;;;;;;21.07;18.27;;;3.90;99.90;;;;;;5039457;28;20954;-65
2021/11/13 07:40:31;;;;;;;21.13;18.97;;;4.00;99.90;;;;;;5032642;28;20452;-65
2021/11/13 07:42:57;;;;;;;21.70;19.40;;;4.00;99.90;;;;;;5048253;28;20196;-64
2021/11/13 07:45:23;;;;;;;21.53;18.30;;;4.10;99.90;;;;;;5035281;28;20471;-65
2021/11/13 07:47:48;;;;;;;25.93;19.10;;;4.10;99.90;;;;;;5036899;28;20562;-65
2021/11/13 07:50:17;;;;;;;24.47;18.43;;;4.10;99.90;;;;;;5045063;28;20259;-64
2021/11/13 07:52:43;;;;;;;19.37;17.23;;;4.10;99.90;;;;;;5037097;28;20636;-65
2021/11/13 07:55:10;;;;;;;20.10;17.63;;;4.20;99.90;;;;;;5032094;28;20432;-63
2021/11/13 07:57:35;;;;;;;21.80;19.20;;;4.20;99.90;;;;;;5039483;28;21007;-65
2021/11/13 08:00:03;;;;;;;23.23;19.73;;;4.20;99.90;;;;;;5040123;28;20428;-65
2021/11/13 08:02:29;;;;;;;22.17;19.60;;;4.20;99.90;;;;;;5046903;28;20265;-65
2021/11/13 08:04:54;;;;;;;22.60;19.30;;;4.20;99.90;;;;;;5035141;28;20523;-67
2021/11/13 08:07:20;;;;;;;20.83;18.47;;;4.30;99.90;;;;;;5042444;28;20323;-64
2021/11/13 08:09:46;;;;;;;24.67;18.10;;;4.40;99.90;;;;;;5042255;28;20208;-65
2021/11/13 08:12:12;;;;;;;21.07;17.70;;;4.60;99.90;;;;;;5032940;28;20186;-65
2021/11/13 08:14:37;;;;;;;21.23;16.27;;;4.80;99.90;;;;;;5039518;28;20204;-62
2021/11/13 08:17:03;;;;;;;18.83;14.87;;;5.10;99.90;;;;;;5047522;28;20437;-65
2021/11/13 08:19:29;;;;;;;15.97;14.33;;;5.20;99.90;;;;;;5038451;28;20197;-65
2021/11/13 08:21:54;;;;;;;17.50;14.10;;;5.40;99.90;;;;;;5034872;28;20185;-68
2021/11/13 08:24:20;;;;;;;20.90;15.30;;;5.70;99.90;;;;;;5037786;28;20202;-66
2021/11/13 08:26:46;;;;;;;16.13;14.60;;;6.20;99.90;;;;;;5036673;28;20636;-65
2021/11/13 08:29:12;;;;;;;13.90;12.40;;;6.50;99.90;;;;;;5042526;28;20508;-65
2021/11/13 08:31:38;;;;;;;14.23;12.53;;;7.30;99.90;;;;;;5041945;28;20467;-64
2021/11/13 08:34:04;;;;;;;13.50;11.83;;;7.60;99.90;;;;;;5034347;28;20428;-66
2021/11/13 08:36:29;;;;;;;14.53;13.13;;;7.60;99.90;;;;;;5042787;28;20431;-66
2021/11/13 08:38:55;;;;;;;14.60;13.10;;;7.50;99.90;;;;;;5048186;28;20202;-66
2021/11/13 08:41:22;;;;;;;14.57;13.07;;;7.10;99.90;;;;;;5043253;28;20545;-67
2021/11/13 08:43:51;;;;;;;14.47;11.60;;;6.70;99.90;;;;;;5034340;28;20433;-66
2021/11/13 08:46:17;;;;;;;18.13;16.03;;;6.60;99.90;;;;;;5034992;28;20428;-66
2021/11/13 08:48:44;;;;;;;16.00;13.37;;;6.50;99.90;;;;;;5027478;28;20470;-65
2021/11/13 08:51:10;;;;;;;14.67;13.27;;;6.50;99.90;;;;;;5038296;28;20460;-70
2021/11/13 08:53:35;;;;;;;13.80;12.40;;;6.40;99.90;;;;;;5031584;28;20425;-65
2021/11/13 08:56:01;;;;;;;14.80;12.93;;;6.40;99.90;;;;;;5034169;28;20232;-66
2021/11/13 08:58:26;;;;;;;14.67;13.07;;;6.40;99.90;;;;;;5042429;28;20572;-64
2021/11/13 09:01:03;;;;;;;13.63;12.23;;;6.30;99.90;;;;;;5046637;28;20196;-64
2021/11/13 09:03:36;;;;;;;14.10;12.50;;;6.50;99.90;;;;;;5031388;28;20209;-64
2021/11/13 09:06:05;;;;;;;13.43;12.07;;;6.60;99.90;;;;;;5033452;28;20435;-63
2021/11/13 09:08:31;;;;;;;13.87;12.27;;;6.50;99.90;;;;;;5046344;28;20443;-63
2021/11/13 09:10:57;;;;;;;12.40;11.20;;;6.40;99.90;;;;;;5032816;28;20472;-66
2021/11/13 09:13:25;;;;;;;13.33;12.03;;;6.40;99.90;;;;;;5031514;28;20175;-65
2021/11/13 09:15:51;;;;;;;12.30;11.10;;;6.50;99.90;;;;;;5027912;28;20620;-66
2021/11/13 09:18:17;;;;;;;14.73;13.30;;;6.60;99.90;;;;;;5037439;28;20455;-64
2021/11/13 09:20:43;;;;;;;12.07;10.87;;;6.70;99.90;;;;;;5035391;28;20451;-63
2021/11/13 09:23:12;;;;;;;14.30;12.60;;;6.90;99.90;;;;;;5043306;28;20197;-64
2021/11/13 09:25:38;;;;;;;12.93;11.63;;;7.10;99.90;;;;;;5036463;28;20432;-64
2021/11/13 09:28:04;;;;;;;11.20;9.90;;;7.30;99.90;;;;;;5036387;28;20459;-66
2021/11/13 09:30:33;;;;;;;11.70;10.60;;;7.60;99.90;;;;;;5045930;28;20459;-63
2021/11/13 09:33:00;;;;;;;12.13;10.93;;;7.70;99.90;;;;;;5041321;28;20489;-65
2021/11/13 09:35:26;;;;;;;11.17;10.07;;;7.90;99.90;;;;;;5036585;28;20478;-64
2021/11/13 09:37:52;;;;;;;13.23;10.53;;;8.00;99.90;;;;;;5041195;28;20535;-64
2021/11/13 09:40:21;;;;;;;11.17;9.97;;;8.20;99.90;;;;;;5043477;28;20427;-64
2021/11/13 09:42:48;;;;;;;10.87;9.77;;;8.50;99.90;;;;;;5052260;28;20501;-64
2021/11/13 09:45:15;;;;;;;10.57;9.47;;;8.70;99.90;;;;;;5047401;28;20442;-65
2021/11/13 09:47:44;;;;;;;11.37;10.17;;;8.90;99.90;;;;;;5049257;28;20479;-63
2021/11/13 09:50:11;;;;;;;9.90;9.00;;;9.20;99.90;;;;;;5037047;28;20452;-64
2021/11/13 09:52:37;;;;;;;9.63;8.73;;;9.70;99.90;;;;;;5043968;28;20823;-65
2021/11/13 09:55:05;;;;;;;10.77;9.77;;;10.30;99.90;;;;;;5046546;28;20515;-65
2021/11/13 09:57:30;;;;;;;11.30;10.20;;;10.60;99.90;;;;;;5039089;28;20464;-64
2021/11/13 09:59:56;;;;;;;11.20;9.63;;;10.60;99.90;;;;;;5044446;28;20424;-64
2021/11/13 10:02:22;;;;;;;9.20;8.07;;;10.50;99.90;;;;;;5038145;28;20660;-65
2021/11/13 10:04:47;;;;;;;9.10;7.27;;;10.30;99.90;;;;;;5039210;28;20551;-65
2021/11/13 10:07:13;;;;;;;9.03;7.20;;;9.80;99.90;;;;;;5041230;28;20181;-68
2021/11/13 10:09:39;;;;;;;9.67;6.80;;;9.50;99.90;;;;;;5046986;28;20536;-65
2021/11/13 10:12:05;;;;;;;7.60;6.03;;;9.20;99.90;;;;;;5046765;28;20550;-65
2021/11/13 10:14:33;;;;;;;8.50;7.60;;;9.20;99.90;;;;;;5035058;28;20175;-65
2021/11/13 10:16:59;;;;;;;8.57;7.17;;;9.20;99.90;;;;;;5034508;28;20451;-67
2021/11/13 10:19:26;;;;;;;7.03;6.37;;;9.20;99.90;;;;;;5039356;28;20578;-65
2021/11/13 10:21:56;;;;;;;7.57;6.53;;;9.20;99.90;;;;;;5035341;28;20433;-65
2021/11/13 10:24:31;;;;;;;7.17;6.43;;;9.30;99.90;;;;;;5047806;28;20429;-64
2021/11/13 10:27:00;;;;;;;8.63;7.27;;;9.20;99.90;;;;;;5038800;28;20471;-64
2021/11/13 10:29:29;;;;;;;8.77;7.83;;;9.30;99.90;;;;;;5030578;28;20993;-63
2021/11/13 10:32:04;;;;;;;8.40;7.60;;;9.40;99.90;;;;;;5031195;28;20456;-65
2021/11/13 10:34:36;;;;;;;7.43;6.60;;;9.40;99.90;;;;;;5023118;28;20444;-65
2021/11/13 10:37:05;;;;;;;8.40;6.87;;;9.50;99.90;;;;;;5034274;28;20433;-63
2021/11/13 10:39:35;;;;;;;14.67;6.67;;;9.50;99.90;;;;;;5041591;28;20561;-65
2021/11/13 10:42:11;;;;;;;7.40;5.33;;;9.60;99.90;;;;;;5032922;28;20443;-64
2021/11/13 10:44:59;;;;;;;6.47;5.87;;;9.90;99.90;;;;;;5044321;28;20491;-64
2021/11/13 10:47:35;;;;;;;6.63;6.00;;;10.30;99.90;;;;;;5042240;28;20540;-64
2021/11/13 10:50:17;;;;;;;7.50;5.50;;;10.50;99.90;;;;;;5044523;28;20666;-64
2021/11/13 10:52:57;;;;;;;7.90;6.40;;;10.90;99.90;;;;;;5041297;28;20433;-65
2021/11/13 10:55:24;;;;;;;9.03;8.23;;;10.90;99.90;;;;;;5034148;28;20459;-65
2021/11/13 10:57:50;;;;;;;6.67;6.07;;;10.80;99.90;;;;;;5033277;28;20505;-64
2021/11/13 11:00:18;;;;;;;7.87;6.37;;;10.80;99.90;;;;;;5037760;28;20523;-65
2021/11/13 11:03:02;;;;;;;8.03;6.50;;;10.60;99.90;;;;;;5026366;28;20837;-64
2021/11/13 11:05:49;;;;;;;8.40;7.70;;;10.40;99.90;;;;;;5029654;28;20498;-65
2021/11/13 11:08:32;;;;;;;8.27;6.83;;;10.30;99.90;;;;;;5028968;28;20927;-64
2021/11/13 11:10:59;;;;;;;7.20;6.50;;;10.20;99.90;;;;;;5049622;28;20490;-65
2021/11/13 11:13:48;;;;;;;8.13;6.77;;;10.20;99.90;;;;;;5033062;28;20436;-66
2021/11/13 11:16:30;;;;;;;7.00;5.53;;;10.10;99.90;;;;;;5032980;28;20440;-65
2021/11/13 11:19:08;;;;;;;7.63;5.83;;;10.00;99.90;;;;;;5034161;28;20468;-65
2021/11/13 11:21:45;;;;;;;7.60;6.27;;;10.00;99.90;;;;;;5034265;28;20506;-64
2021/11/13 11:24:24;;;;;;;6.53;5.93;;;9.90;99.90;;;;;;5031724;28;20866;-65
2021/11/13 11:27:00;;;;;;;7.70;6.87;;;9.90;99.90;;;;;;5034011;28;20432;-65
2021/11/13 11:29:28;;;;;;;9.03;8.17;;;10.00;99.90;;;;;;5027359;28;20461;-64
2021/11/13 11:31:56;;;;;;;11.00;7.23;;;10.10;99.90;;;;;;5032104;28;20787;-64
2021/11/13 11:34:31;;;;;;;7.70;7.00;;;10.10;99.90;;;;;;5031038;28;20446;-64
2021/11/13 11:37:04;;;;;;;7.37;6.60;;;10.30;99.90;;;;;;5034914;28;20445;-64
2021/11/13 11:39:30;;;;;;;8.40;6.93;;;10.20;99.90;;;;;;5034817;28;20974;-64
2021/11/13 11:41:56;;;;;;;11.30;6.73;;;10.30;99.90;;;;;;5024752;28;20443;-64
2021/11/13 11:44:22;;;;;;;9.90;6.97;;;10.20;99.90;;;;;;5032331;28;20178;-65
2021/11/13 11:46:48;;;;;;;8.43;6.63;;;10.20;99.90;;;;;;5032689;28;20243;-65
2021/11/13 11:49:14;;;;;;;7.87;6.43;;;10.20;99.90;;;;;;5042129;28;20555;-64
2021/11/13 11:51:41;;;;;;;8.80;7.10;;;10.30;99.90;;;;;;5018595;28;20608;-64
2021/11/13 11:54:08;;;;;;;12.10;7.37;;;10.30;99.90;;;;;;5012298;28;20430;-67
2021/11/13 11:56:34;;;;;;;8.70;7.80;;;10.30;99.90;;;;;;5028825;28;20436;-63
2021/11/13 11:59:02;;;;;;;10.63;8.90;;;10.30;99.90;;;;;;5044162;28;20444;-65
2021/11/13 12:01:38;;;;;;;10.43;9.33;;;10.30;99.90;;;;;;5027135;28;20529;-63
2021/11/13 12:04:19;;;;;;;9.30;8.33;;;10.40;99.90;;;;;;5025165;28;20452;-65
2021/11/13 12:06:52;;;;;;;10.60;9.60;;;10.60;99.90;;;;;;5047046;28;20431;-65
2021/11/13 12:09:18;;;;;;;9.67;8.67;;;10.70;99.90;;;;;;5036014;28;20460;-65
2021/11/13 12:11:44;;;;;;;10.70;9.00;;;10.80;99.90;;;;;;5039746;28;20464;-65
2021/11/13 12:14:37;;;;;;;10.77;8.87;;;10.90;99.90;;;;;;5044346;28;20453;-65
2021/11/13 12:17:28;;;;;;;12.90;10.70;;;10.90;99.90;;;;;;5036802;28;20997;-65
2021/11/13 12:20:11;;;;;;;13.80;11.30;;;11.00;99.90;;;;;;5033178;28;20798;-65
2021/11/13 12:22:42;;;;;;;14.07;10.37;;;10.90;99.90;;;;;;5033068;28;20429;-64
2021/11/13 12:25:23;;;;;;;13.23;11.70;;;10.90;99.90;;;;;;5020147;28;20457;-64
2021/11/13 12:28:17;;;;;;;18.13;12.37;;;10.80;99.90;;;;;;5041598;28;20597;-65
2021/11/13 12:30:46;;;;;;;16.60;12.87;;;10.80;99.90;;;;;;5044955;28;20825;-65
2021/11/13 12:33:27;;;;;;;14.33;11.10;;;10.80;99.90;;;;;;5036008;28;20515;-65
2021/11/13 12:35:53;;;;;;;8.97;8.07;;;10.50;99.90;;;;;;5050143;28;20486;-65
2021/11/13 12:38:31;;;;;;;8.13;7.33;;;10.40;99.90;;;;;;5037367;28;20457;-64
2021/11/13 12:41:11;;;;;;;8.73;6.70;;;10.30;99.90;;;;;;5047901;28;20428;-64